ěÝzenÝ letovÚho provozu ╚eskÚ republiky
Letiste: LKPD Aktualizace: 09.12.2022 11:29:31  UTC
 METAR LKPD 09.12. 11:30 ...
METAR LKPD 091130Z 09004KT 8000 SCT024 OVC040 02/M00 Q1005 NOSIG RMK BLU BLU=
 TAF LKPD 09.12. 05:00 ...
TAF LKPD 090500Z 0906/1006 08004KT 8000 BKN045      TEMPO 0906/0910 6000 SCT045      BECMG 0911/0913 BKN022      BECMG 0914/0916 5000 SNRA OVC016      TEMPO 0914/1000 3000 SN BKN009      BECMG 0923/1001 27004KT 9999 NSW BKN020=